createdAt,value
2018-04-10T00:00:23.535Z,99106.16
2018-04-10T00:02:51.155Z,99108.94
2018-04-10T00:05:18.560Z,99106.64
2018-04-10T00:07:45.975Z,99110.41
2018-04-10T00:10:13.418Z,99108.07
2018-04-10T00:12:40.843Z,99108.91
2018-04-10T00:15:08.262Z,99103.75
2018-04-10T00:17:35.692Z,99112.92
2018-04-10T00:20:03.121Z,99116.50
2018-04-10T00:22:30.532Z,99114.95
2018-04-10T00:24:57.985Z,99115.82
2018-04-10T00:27:25.388Z,99112.09
2018-04-10T00:29:52.822Z,99114.31
2018-04-10T00:32:20.231Z,99106.80
2018-04-10T00:34:47.668Z,99109.79
2018-04-10T00:37:15.079Z,99117.13
2018-04-10T00:39:42.515Z,99105.02
2018-04-10T00:42:09.949Z,99109.42
2018-04-10T00:44:37.375Z,99110.61
2018-04-10T00:47:04.795Z,99114.98
2018-04-10T00:49:32.215Z,99112.41
2018-04-10T00:51:59.635Z,99111.02
2018-04-10T00:54:27.108Z,99110.02
2018-04-10T00:56:54.527Z,99113.59
2018-04-10T00:59:21.935Z,99112.08
2018-04-10T01:01:49.364Z,99110.97
2018-04-10T01:04:16.765Z,99099.92
2018-04-10T01:06:44.192Z,99105.12
2018-04-10T01:09:11.604Z,99100.41
2018-04-10T01:11:39.007Z,99102.63
2018-04-10T01:14:06.429Z,99117.37
2018-04-10T01:16:33.843Z,99114.86
2018-04-10T01:19:01.270Z,99114.86
2018-04-10T01:21:28.679Z,99119.84
2018-04-10T01:23:56.102Z,99110.53
2018-04-10T01:26:23.506Z,99105.61
2018-04-10T01:28:50.931Z,99105.64
2018-04-10T01:31:18.351Z,99108.84
2018-04-10T01:33:45.787Z,99110.06
2018-04-10T01:36:13.198Z,99106.13
2018-04-10T01:38:40.624Z,99105.97
2018-04-10T01:41:08.043Z,99110.92
2018-04-10T01:43:35.457Z,99104.22
2018-04-10T01:46:02.878Z,99108.41
2018-04-10T01:48:30.294Z,99112.17
2018-04-10T01:50:57.711Z,99112.83
2018-04-10T01:53:25.119Z,99116.85
2018-04-10T01:55:52.538Z,99119.26
2018-04-10T01:58:19.952Z,99117.50
2018-04-10T02:00:47.380Z,99119.31
2018-04-10T02:03:14.789Z,99118.13
2018-04-10T02:05:42.198Z,99118.16
2018-04-10T02:08:09.614Z,99115.41
2018-04-10T02:10:37.028Z,99121.60
2018-04-10T02:13:04.447Z,99131.73
2018-04-10T02:15:31.871Z,99136.34
2018-04-10T02:17:59.305Z,99142.13
2018-04-10T02:20:26.741Z,99139.83
2018-04-10T02:22:54.169Z,99138.15
2018-04-10T02:25:21.587Z,99139.98
2018-04-10T02:27:49.164Z,99150.48
2018-04-10T02:30:16.603Z,99151.30
2018-04-10T02:32:44.023Z,99150.72
2018-04-10T02:35:11.447Z,99149.75
2018-04-10T02:37:39.293Z,99151.53
2018-04-10T02:40:06.732Z,99158.30
2018-04-10T02:42:34.147Z,99165.03
2018-04-10T02:45:01.571Z,99159.93
2018-04-10T02:47:29.007Z,99157.39
2018-04-10T02:49:56.420Z,99162.34
2018-04-10T02:52:23.841Z,99159.95
2018-04-10T02:54:51.267Z,99161.76
2018-04-10T02:57:18.691Z,99155.61
2018-04-10T02:59:46.151Z,99165.73
2018-04-10T03:02:13.571Z,99161.59
2018-04-10T03:04:40.982Z,99157.23
2018-04-10T03:07:08.408Z,99165.39
2018-04-10T03:09:35.988Z,99152.58
2018-04-10T03:12:03.403Z,99152.00
2018-04-10T03:14:30.824Z,99150.42
2018-04-10T03:16:58.246Z,99150.64
2018-04-10T03:19:25.669Z,99153.44
2018-04-10T03:21:53.201Z,99151.27
2018-04-10T03:24:20.612Z,99154.85
2018-04-10T03:26:48.028Z,99156.64
2018-04-10T03:29:15.450Z,99157.84
2018-04-10T03:31:42.856Z,99159.44
2018-04-10T03:34:10.296Z,99161.04
2018-04-10T03:36:37.712Z,99161.42
2018-04-10T03:39:06.135Z,99161.83
2018-04-10T03:41:33.559Z,99156.09
2018-04-10T03:44:00.971Z,99162.63
2018-04-10T03:46:28.400Z,99164.80
2018-04-10T03:48:55.823Z,99166.18
2018-04-10T03:51:23.243Z,99170.52
2018-04-10T03:53:50.666Z,99172.09
2018-04-10T03:56:18.103Z,99175.66
2018-04-10T03:58:45.530Z,99174.66
2018-04-10T04:01:12.952Z,99173.69
2018-04-10T04:03:40.366Z,99171.32
2018-04-10T04:06:07.979Z,99173.67
2018-04-10T04:08:35.384Z,99174.29
2018-04-10T04:11:02.803Z,99179.23
2018-04-10T04:13:30.234Z,99173.30
2018-04-10T04:15:57.631Z,99169.95
2018-04-10T04:18:36.752Z,99171.88
2018-04-10T04:21:16.023Z,99175.42
2018-04-10T04:23:43.443Z,99173.66
2018-04-10T04:26:10.851Z,99175.81
2018-04-10T04:28:38.283Z,99182.36
2018-04-10T04:31:05.692Z,99179.19
2018-04-10T04:33:33.117Z,99193.78
2018-04-10T04:36:00.532Z,99197.75
2018-04-10T04:38:27.964Z,99196.34
2018-04-10T04:40:55.374Z,99192.02
2018-04-10T04:43:22.815Z,99185.31
2018-04-10T04:45:50.219Z,99193.01
2018-04-10T04:48:17.669Z,99195.94
2018-04-10T04:50:45.075Z,99191.00
2018-04-10T04:53:12.515Z,99187.86
2018-04-10T04:55:39.937Z,99186.47
2018-04-10T04:58:07.376Z,99190.42
2018-04-10T05:00:34.811Z,99194.98
2018-04-10T05:03:02.224Z,99197.73
2018-04-10T05:05:29.667Z,99201.09
2018-04-10T05:07:57.090Z,99199.31
2018-04-10T05:10:24.505Z,99201.30
2018-04-10T05:12:51.923Z,99199.92
2018-04-10T05:15:19.335Z,99209.03
2018-04-10T05:17:46.951Z,99212.59
2018-04-10T05:20:14.369Z,99209.63
2018-04-10T05:22:41.787Z,99209.25
2018-04-10T05:25:09.211Z,99208.05
2018-04-10T05:27:39.973Z,99213.97
2018-04-10T05:30:07.387Z,99215.55
2018-04-10T05:32:34.799Z,99208.78
2018-04-10T05:35:02.690Z,99204.80
2018-04-10T05:37:30.087Z,99212.66
2018-04-10T05:39:57.519Z,99206.67
2018-04-10T05:42:24.938Z,99201.23
2018-04-10T05:44:52.366Z,99206.66
2018-04-10T05:47:19.784Z,99205.54
2018-04-10T05:49:47.206Z,99207.17
2018-04-10T05:52:14.628Z,99205.67
2018-04-10T05:54:42.048Z,99205.02
2018-04-10T05:57:09.613Z,99205.44
2018-04-10T05:59:37.043Z,99206.16
2018-04-10T06:02:04.446Z,99210.60
2018-04-10T06:04:31.882Z,99212.29
2018-04-10T06:06:59.299Z,99213.77
2018-04-10T06:09:26.727Z,99221.38
2018-04-10T06:11:54.142Z,99217.86
2018-04-10T06:14:21.912Z,99211.25
2018-04-10T06:16:49.331Z,99211.53
2018-04-10T06:19:16.739Z,99215.82
2018-04-10T06:21:44.169Z,99218.73
2018-04-10T06:24:11.584Z,99226.25
2018-04-10T06:26:39.011Z,99216.95
2018-04-10T06:29:06.414Z,99220.75
2018-04-10T06:31:33.839Z,99219.00
2018-04-10T06:34:01.243Z,99224.79
2018-04-10T06:36:28.688Z,99223.91
2018-04-10T06:38:56.128Z,99223.53
2018-04-10T06:41:23.704Z,99226.84
2018-04-10T06:43:51.137Z,99225.85
2018-04-10T06:46:18.555Z,99221.61
2018-04-10T06:48:45.979Z,99229.33
2018-04-10T06:51:13.940Z,99228.80
2018-04-10T06:53:41.367Z,99224.63
2018-04-10T06:56:08.789Z,99232.92
2018-04-10T06:58:36.203Z,99234.83
2018-04-10T07:01:03.635Z,99239.46
2018-04-10T07:03:31.080Z,99230.47
2018-04-10T07:05:58.508Z,99226.63
2018-04-10T07:08:25.940Z,99226.10
2018-04-10T07:10:53.361Z,99233.27
2018-04-10T07:13:20.819Z,99230.01
2018-04-10T07:15:48.231Z,99229.50
2018-04-10T07:18:15.648Z,99228.63
2018-04-10T07:20:43.075Z,99231.70
2018-04-10T07:23:10.498Z,99239.46
2018-04-10T07:25:37.937Z,99245.73
2018-04-10T07:28:05.399Z,99247.59
2018-04-10T07:30:32.823Z,99252.07
2018-04-10T07:33:00.265Z,99255.94
2018-04-10T07:35:27.691Z,99262.30
2018-04-10T07:37:55.109Z,99267.42
2018-04-10T07:40:22.852Z,99269.55
2018-04-10T07:42:50.259Z,99264.93
2018-04-10T07:45:17.687Z,99265.94
2018-04-10T07:47:45.124Z,99265.00
2018-04-10T07:50:12.629Z,99266.09
2018-04-10T07:52:40.048Z,99268.18
2018-04-10T07:55:07.463Z,99259.10
2018-04-10T07:57:34.903Z,99257.98
2018-04-10T08:00:02.330Z,99252.54
2018-04-10T08:02:29.792Z,99255.73
2018-04-10T08:04:57.181Z,99257.36
2018-04-10T08:07:24.612Z,99254.16
2018-04-10T08:09:52.059Z,99260.66
2018-04-10T08:12:19.650Z,99262.50
2018-04-10T08:14:47.115Z,99269.52
2018-04-10T08:17:14.632Z,99270.53
2018-04-10T08:19:42.084Z,99268.78
2018-04-10T08:22:09.497Z,99272.53
2018-04-10T08:24:36.937Z,99271.94
2018-04-10T08:27:04.361Z,99278.28
2018-04-10T08:29:31.767Z,99273.62
2018-04-10T08:31:59.214Z,99273.14
2018-04-10T08:34:26.795Z,99273.77
2018-04-10T08:36:54.216Z,99269.01
2018-04-10T08:39:21.623Z,99268.89
2018-04-10T08:41:49.063Z,99268.84
2018-04-10T08:44:16.492Z,99268.97
2018-04-10T08:46:44.037Z,99264.52
2018-04-10T08:49:11.492Z,99267.09
2018-04-10T08:51:38.896Z,99271.73
2018-04-10T08:54:06.325Z,99274.02
2018-04-10T08:56:33.867Z,99278.13
2018-04-10T08:59:01.279Z,99280.24
2018-04-10T09:01:28.683Z,99278.99
2018-04-10T09:03:56.103Z,99278.38
2018-04-10T09:06:23.521Z,99271.73
2018-04-10T09:08:50.953Z,99278.28
2018-04-10T09:11:18.376Z,99277.11
2018-04-10T09:13:45.795Z,99274.27
2018-04-10T09:16:13.241Z,99275.46
2018-04-10T09:18:40.643Z,99272.89
2018-04-10T09:21:08.059Z,99276.56
2018-04-10T09:23:35.483Z,99279.52
2018-04-10T09:26:02.898Z,99276.45
2018-04-10T09:28:30.308Z,99272.02
2018-04-10T09:30:57.795Z,99268.42
2018-04-10T09:33:25.230Z,99271.11
2018-04-10T09:35:52.649Z,99264.28
2018-04-10T09:38:20.065Z,99271.38
2018-04-10T09:40:47.478Z,99272.78
2018-04-10T09:43:14.905Z,99271.84
2018-04-10T09:45:42.323Z,99265.56
2018-04-10T09:48:09.743Z,99264.17
2018-04-10T09:50:37.209Z,99267.51
2018-04-10T09:53:04.709Z,99263.50
2018-04-10T09:55:32.224Z,99254.13
2018-04-10T09:57:59.683Z,99250.90
2018-04-10T10:00:32.807Z,99254.06
2018-04-10T10:03:00.351Z,99254.97
2018-04-10T10:05:27.788Z,99252.69
2018-04-10T10:07:56.167Z,99262.19
2018-04-10T10:10:23.579Z,99264.98
2018-04-10T10:12:51.032Z,99264.47
2018-04-10T10:15:18.427Z,99265.45
2018-04-10T10:17:46.016Z,99263.47
2018-04-10T10:20:13.433Z,99272.41
2018-04-10T10:22:40.863Z,99270.84
2018-04-10T10:25:08.310Z,99273.16
2018-04-10T10:27:35.723Z,99269.97
2018-04-10T10:30:03.155Z,99267.83
2018-04-10T10:32:30.574Z,99272.14
2018-04-10T10:34:58.025Z,99263.63
2018-04-10T10:37:25.453Z,99267.79
2018-04-10T10:39:52.880Z,99263.39
2018-04-10T10:42:20.329Z,99260.63
2018-04-10T10:44:47.774Z,99266.22
2018-04-10T10:47:15.203Z,99255.27
2018-04-10T10:49:42.622Z,99257.27
2018-04-10T10:52:10.083Z,99257.09
2018-04-10T10:54:37.514Z,99262.48
2018-04-10T10:57:04.931Z,99254.34
2018-04-10T10:59:32.387Z,99256.81
2018-04-10T11:01:59.799Z,99265.39
2018-04-10T11:04:27.235Z,99270.52
2018-04-10T11:06:54.676Z,99254.13
2018-04-10T11:09:22.129Z,99256.73
2018-04-10T11:11:49.549Z,99258.26
2018-04-10T11:14:16.981Z,99253.80
2018-04-10T11:16:44.500Z,99260.55
2018-04-10T11:19:11.965Z,99257.52
2018-04-10T11:21:39.436Z,99259.59
2018-04-10T11:24:06.856Z,99257.06
2018-04-10T11:26:34.272Z,99257.41
2018-04-10T11:29:01.748Z,99257.22
2018-04-10T11:31:29.166Z,99259.11
2018-04-10T11:33:56.605Z,99257.67
2018-04-10T11:36:24.039Z,99257.50
2018-04-10T11:38:51.481Z,99252.05
2018-04-10T11:41:18.928Z,99253.36
2018-04-10T11:43:46.417Z,99253.81
2018-04-10T11:46:13.835Z,99256.16
2018-04-10T11:48:41.287Z,99258.88
2018-04-10T11:51:08.765Z,99251.56
2018-04-10T11:53:36.175Z,99256.84
2018-04-10T11:56:03.621Z,99255.41
2018-04-10T11:58:31.080Z,99251.05
2018-04-10T12:00:58.495Z,99239.03
2018-04-10T12:03:25.929Z,99243.23
2018-04-10T12:05:53.381Z,99246.00
2018-04-10T12:08:20.818Z,99239.59
2018-04-10T12:10:48.231Z,99237.13
2018-04-10T12:13:15.707Z,99246.45
2018-04-10T12:15:43.126Z,99230.03
2018-04-10T12:18:10.591Z,99245.58
2018-04-10T12:20:38.028Z,99233.28
2018-04-10T12:23:05.455Z,99233.53
2018-04-10T12:25:32.915Z,99232.83
2018-04-10T12:28:00.584Z,99231.92
2018-04-10T12:30:27.990Z,99233.06
2018-04-10T12:32:55.442Z,99222.78
2018-04-10T12:35:22.873Z,99223.84
2018-04-10T12:37:50.317Z,99225.46
2018-04-10T12:40:17.757Z,99226.73
2018-04-10T12:42:45.181Z,99220.62
2018-04-10T12:45:12.604Z,99210.76
2018-04-10T12:47:40.042Z,99209.48
2018-04-10T12:50:07.543Z,99210.95
2018-04-10T12:52:34.979Z,99217.34
2018-04-10T12:55:02.450Z,99208.78
2018-04-10T12:57:29.887Z,99217.34
2018-04-10T12:59:57.427Z,99210.05
2018-04-10T13:02:24.869Z,99216.19
2018-04-10T13:04:52.298Z,99217.38
2018-04-10T13:07:19.725Z,99220.50
2018-04-10T13:09:47.150Z,99215.70
2018-04-10T13:12:14.576Z,99220.14
2018-04-10T13:14:41.999Z,99224.45
2018-04-10T13:17:09.424Z,99221.95
2018-04-10T13:19:36.844Z,99214.80
2018-04-10T13:22:04.263Z,99216.42
2018-04-10T13:24:31.692Z,99209.48
2018-04-10T13:26:59.172Z,99206.37
2018-04-10T13:29:26.584Z,99209.13
2018-04-10T13:31:53.995Z,99198.46
2018-04-10T13:34:21.411Z,99196.80
2018-04-10T13:36:48.834Z,99196.67
2018-04-10T13:39:16.252Z,99201.72
2018-04-10T13:41:43.667Z,99204.03
2018-04-10T13:44:11.099Z,99194.84
2018-04-10T13:46:38.520Z,99197.23
2018-04-10T13:49:06.207Z,99196.78
2018-04-10T13:51:33.626Z,99190.63
2018-04-10T13:54:01.037Z,99188.72
2018-04-10T13:56:28.484Z,99190.57
2018-04-10T13:58:56.056Z,99182.45
2018-04-10T14:01:23.479Z,99186.53
2018-04-10T14:03:50.890Z,99180.91
2018-04-10T14:06:18.312Z,99179.73
2018-04-10T14:08:45.741Z,99176.09
2018-04-10T14:11:13.228Z,99175.27
2018-04-10T14:13:40.627Z,99171.05
2018-04-10T14:16:08.039Z,99161.63
2018-04-10T14:18:35.477Z,99156.54
2018-04-10T14:21:03.235Z,99161.91
2018-04-10T14:23:30.680Z,99161.55
2018-04-10T14:25:58.094Z,99161.53
2018-04-10T14:28:25.519Z,99158.92
2018-04-10T14:30:52.925Z,99147.75
2018-04-10T14:33:20.355Z,99154.32
2018-04-10T14:35:47.775Z,99151.52
2018-04-10T14:38:15.207Z,99152.30
2018-04-10T14:40:42.628Z,99145.97
2018-04-10T14:43:10.051Z,99149.09
2018-04-10T14:45:37.464Z,99137.84
2018-04-10T14:48:04.872Z,99136.99
2018-04-10T14:50:32.327Z,99134.09
2018-04-10T14:52:59.716Z,99130.26
2018-04-10T14:55:27.151Z,99122.70
2018-04-10T14:57:54.555Z,99122.63
2018-04-10T15:00:21.968Z,99119.28
2018-04-10T15:02:49.398Z,99125.98
2018-04-10T15:05:16.799Z,99114.34
2018-04-10T15:07:44.230Z,99108.04
2018-04-10T15:10:11.660Z,99108.58
2018-04-10T15:12:39.067Z,99109.45
2018-04-10T15:15:06.482Z,99120.61
2018-04-10T15:17:33.909Z,99125.75
2018-04-10T15:20:01.315Z,99118.03
2018-04-10T15:22:28.723Z,99121.07
2018-04-10T15:24:56.147Z,99122.49
2018-04-10T15:27:23.559Z,99129.97
2018-04-10T15:29:50.999Z,99117.80
2018-04-10T15:32:18.444Z,99116.85
2018-04-10T15:34:45.883Z,99113.36
2018-04-10T15:37:13.324Z,99119.52
2018-04-10T15:39:40.722Z,99110.91
2018-04-10T15:42:08.155Z,99108.66
2018-04-10T15:44:35.579Z,99112.23
2018-04-10T15:47:03.045Z,99113.09
2018-04-10T15:49:30.706Z,99132.78
2018-04-10T15:51:58.127Z,99119.04
2018-04-10T15:54:25.536Z,99110.75
2018-04-10T15:56:52.961Z,99115.59
2018-04-10T15:59:20.377Z,99114.89
2018-04-10T16:01:47.835Z,99115.44
2018-04-10T16:04:15.283Z,99117.86
2018-04-10T16:06:42.729Z,99114.73
2018-04-10T16:09:10.124Z,99115.53
2018-04-10T16:11:37.565Z,99112.09
2018-04-10T16:14:04.976Z,99114.30
2018-04-10T16:16:32.682Z,99110.67
2018-04-10T16:19:00.095Z,99120.53
2018-04-10T16:21:27.503Z,99115.91
2018-04-10T16:23:54.935Z,99108.88
2018-04-10T16:26:22.346Z,99111.47
2018-04-10T16:28:49.800Z,99102.02
2018-04-10T16:31:17.217Z,99106.78
2018-04-10T16:33:44.619Z,99109.27
2018-04-10T16:36:12.756Z,99105.48
2018-04-10T16:38:40.167Z,99098.94
2018-04-10T16:41:07.707Z,99107.26
2018-04-10T16:43:35.122Z,99115.19
2018-04-10T16:46:02.526Z,99111.37
2018-04-10T16:48:29.960Z,99111.06
2018-04-10T16:50:57.371Z,99117.84
2018-04-10T16:53:24.781Z,99117.50
2018-04-10T16:55:52.212Z,99112.50
2018-04-10T16:58:19.619Z,99110.84
2018-04-10T17:00:47.056Z,99114.97
2018-04-10T17:03:14.469Z,99118.13
2018-04-10T17:05:41.887Z,99120.11
2018-04-10T17:08:09.297Z,99118.97
2018-04-10T17:10:36.715Z,99117.66
2018-04-10T17:13:04.184Z,99112.45
2018-04-10T17:15:31.611Z,99119.28
2018-04-10T17:17:59.055Z,99111.78
2018-04-10T17:20:26.477Z,99103.18
2018-04-10T17:22:53.947Z,99108.91
2018-04-10T17:25:21.366Z,99105.05
2018-04-10T17:27:48.837Z,99103.78
2018-04-10T17:30:16.224Z,99108.81
2018-04-10T17:32:43.635Z,99119.55
2018-04-10T17:35:11.058Z,99117.95
2018-04-10T17:37:38.488Z,99114.06
2018-04-10T17:40:05.903Z,99122.73
2018-04-10T17:42:33.311Z,99115.97
2018-04-10T17:45:00.852Z,99124.23
2018-04-10T17:47:28.255Z,99130.05
2018-04-10T17:49:55.671Z,99124.43
2018-04-10T17:52:23.107Z,99126.88
2018-04-10T17:54:50.520Z,99136.44
2018-04-10T17:57:18.204Z,99134.94
2018-04-10T17:59:45.671Z,99130.91
2018-04-10T18:02:13.083Z,99133.21
2018-04-10T18:04:40.520Z,99137.73
2018-04-10T18:07:07.928Z,99140.58
2018-04-10T18:09:35.350Z,99142.16
2018-04-10T18:12:02.756Z,99149.90
2018-04-10T18:14:30.186Z,99146.50
2018-04-10T18:16:57.591Z,99151.45
2018-04-10T18:19:25.014Z,99152.65
2018-04-10T18:21:52.428Z,99162.78
2018-04-10T18:24:19.848Z,99169.90
2018-04-10T18:26:47.263Z,99169.47
2018-04-10T18:29:14.695Z,99166.05
2018-04-10T18:31:42.139Z,99166.78
2018-04-10T18:34:09.540Z,99176.08
2018-04-10T18:36:36.998Z,99169.91
2018-04-10T18:39:04.416Z,99177.12
2018-04-10T18:41:31.985Z,99187.31
2018-04-10T18:43:59.383Z,99179.88
2018-04-10T18:46:26.793Z,99180.31
2018-04-10T18:48:54.228Z,99182.50
2018-04-10T18:51:21.670Z,99184.72
2018-04-10T18:53:49.250Z,99188.66
2018-04-10T18:56:16.920Z,99190.17
2018-04-10T18:58:44.324Z,99186.97
2018-04-10T19:01:11.892Z,99190.38
2018-04-10T19:03:39.327Z,99191.38
2018-04-10T19:06:06.744Z,99195.14
2018-04-10T19:08:34.165Z,99200.11
2018-04-10T19:11:01.576Z,99205.63
2018-04-10T19:13:29.281Z,99200.20
2018-04-10T19:15:56.707Z,99208.03
2018-04-10T19:18:24.120Z,99207.62
2018-04-10T19:20:51.549Z,99215.27
2018-04-10T19:23:18.955Z,99215.47
2018-04-10T19:25:47.083Z,99212.13
2018-04-10T19:28:14.499Z,99214.66
2018-04-10T19:30:41.960Z,99213.11
2018-04-10T19:33:09.395Z,99225.15
2018-04-10T19:35:36.814Z,99217.82
2018-04-10T19:38:04.303Z,99215.69
2018-04-10T19:40:31.752Z,99224.77
2018-04-10T19:42:59.200Z,99226.36
2018-04-10T19:45:26.678Z,99225.50
2018-04-10T19:47:54.105Z,99234.02
2018-04-10T19:50:21.537Z,99236.48
2018-04-10T19:52:48.961Z,99250.44
2018-04-10T19:55:16.394Z,99251.78
2018-04-10T19:57:44.027Z,99251.66
2018-04-10T20:00:11.443Z,99253.91
2018-04-10T20:02:38.856Z,99255.03
2018-04-10T20:05:06.288Z,99265.95
2018-04-10T20:07:33.703Z,99273.75
2018-04-10T20:10:01.111Z,99272.72
2018-04-10T20:12:28.645Z,99276.86
2018-04-10T20:14:56.090Z,99266.28
2018-04-10T20:17:23.498Z,99270.26
2018-04-10T20:19:50.944Z,99278.05
2018-04-10T20:22:18.367Z,99278.05
2018-04-10T20:24:46.079Z,99274.72
2018-04-10T20:27:13.491Z,99282.05
2018-04-10T20:29:40.912Z,99280.72
2018-04-10T20:32:08.327Z,99272.56
2018-04-10T20:34:35.743Z,99281.62
2018-04-10T20:37:03.194Z,99285.78
2018-04-10T20:39:30.608Z,99280.55
2018-04-10T20:41:58.065Z,99277.36
2018-04-10T20:44:25.470Z,99288.42
2018-04-10T20:46:52.883Z,99289.66
2018-04-10T20:49:20.456Z,99294.94
2018-04-10T20:51:47.860Z,99307.45
2018-04-10T20:54:15.276Z,99313.38
2018-04-10T20:56:42.703Z,99316.04
2018-04-10T20:59:10.128Z,99324.72
2018-04-10T21:01:37.551Z,99319.84
2018-04-10T21:04:04.995Z,99323.72
2018-04-10T21:06:32.433Z,99331.50
2018-04-10T21:08:59.889Z,99325.83
2018-04-10T21:11:27.299Z,99321.92
2018-04-10T21:13:54.708Z,99326.38
2018-04-10T21:16:22.142Z,99323.94
2018-04-10T21:18:49.565Z,99326.73
2018-04-10T21:21:16.989Z,99326.48
2018-04-10T21:23:44.584Z,99327.36
2018-04-10T21:26:12.164Z,99333.39
2018-04-10T21:28:39.564Z,99334.66
2018-04-10T21:31:07.007Z,99331.56
2018-04-10T21:33:34.404Z,99340.02
2018-04-10T21:36:01.840Z,99338.11
2018-04-10T21:38:29.264Z,99338.05
2018-04-10T21:40:56.687Z,99339.67
2018-04-10T21:43:29.978Z,99343.73
2018-04-10T21:45:57.399Z,99342.82
2018-04-10T21:48:24.842Z,99347.27
2018-04-10T21:50:52.261Z,99351.71
2018-04-10T21:53:19.674Z,99354.97
2018-04-10T21:55:47.112Z,99348.64
2018-04-10T21:58:14.524Z,99354.03
2018-04-10T22:00:41.955Z,99354.22
2018-04-10T22:03:09.612Z,99361.96
2018-04-10T22:05:37.030Z,99346.82
2018-04-10T22:08:04.436Z,99357.43
2018-04-10T22:10:31.870Z,99353.59
2018-04-10T22:12:59.279Z,99360.10
2018-04-10T22:15:26.703Z,99359.66
2018-04-10T22:17:54.161Z,99364.88
2018-04-10T22:20:21.530Z,99366.42
2018-04-10T22:22:48.955Z,99372.27
2018-04-10T22:25:16.375Z,99370.88
2018-04-10T22:27:43.798Z,99375.59
2018-04-10T22:30:11.265Z,99377.36
2018-04-10T22:32:38.652Z,99379.53
2018-04-10T22:35:06.076Z,99377.25
2018-04-10T22:37:33.495Z,99383.44
2018-04-10T22:40:00.924Z,99379.39
2018-04-10T22:42:28.344Z,99387.34
2018-04-10T22:44:55.786Z,99394.86
2018-04-10T22:47:23.201Z,99397.32
2018-04-10T22:49:50.636Z,99397.83
2018-04-10T22:52:18.064Z,99405.06
2018-04-10T22:54:45.631Z,99414.09
2018-04-10T22:57:13.047Z,99410.06
2018-04-10T22:59:40.468Z,99419.23
2018-04-10T23:02:07.904Z,99412.14
2018-04-10T23:04:35.315Z,99412.64
2018-04-10T23:07:02.740Z,99413.37
2018-04-10T23:09:30.164Z,99412.30
2018-04-10T23:11:57.740Z,99414.56
2018-04-10T23:14:25.168Z,99416.21
2018-04-10T23:16:52.584Z,99418.27
2018-04-10T23:19:20.012Z,99421.48
2018-04-10T23:21:47.454Z,99412.80
2018-04-10T23:24:14.868Z,99413.66
2018-04-10T23:26:42.294Z,99419.88
2018-04-10T23:29:09.879Z,99421.09
2018-04-10T23:31:37.292Z,99423.55
2018-04-10T23:34:04.718Z,99428.36
2018-04-10T23:36:32.144Z,99423.04
2018-04-10T23:38:59.552Z,99423.45
2018-04-10T23:41:26.981Z,99426.66
2018-04-10T23:43:54.391Z,99434.62
2018-04-10T23:46:21.811Z,99432.66
2018-04-10T23:48:49.231Z,99435.89
2018-04-10T23:51:16.667Z,99435.11
2018-04-10T23:53:44.089Z,99437.31
2018-04-10T23:56:11.514Z,99434.53
2018-04-10T23:58:38.919Z,99431.00
